Time;durP1;ratioP1;P1;durP2;ratioP2;P2;SDS_P1;SDS_P2;PMS_P1;PMS_P2;Temp;Humidity;BMP_temperature;BMP_pressure;BME280_temperature;BME280_humidity;BME280_pressure;Samples;Min_cycle;Max_cycle;Signal;HPM_P1;HPM_P2
2022/03/31 00:00:32;;;;;;;1.17;1.08;;;4.40;99.90;;;;;;4997943;28;20037;-71
2022/03/31 00:02:58;;;;;;;2.63;1.50;;;4.10;99.90;;;;;;4996499;28;20370;-71
2022/03/31 00:05:24;;;;;;;4.40;1.63;;;4.20;99.90;;;;;;5018882;28;20063;-71
2022/03/31 00:07:54;;;;;;;2.53;1.20;;;4.20;99.90;;;;;;5015424;28;20037;-71
2022/03/31 00:10:41;;;;;;;3.70;1.05;;;4.20;99.90;;;;;;5013977;28;20071;-71
2022/03/31 00:13:11;;;;;;;1.15;0.88;;;4.20;99.90;;;;;;4996456;28;20037;-70
2022/03/31 00:15:38;;;;;;;2.35;1.02;;;4.20;99.90;;;;;;5008033;28;20390;-70
2022/03/31 00:18:05;;;;;;;1.90;1.00;;;4.10;99.90;;;;;;5024832;28;20189;-71
2022/03/31 00:23:53;;;;;;;4.07;1.00;;;4.20;99.90;;;;;;5001370;28;20050;-71
2022/03/31 00:26:19;;;;;;;0.95;0.90;;;4.20;99.90;;;;;;5026431;28;20049;-71
2022/03/31 00:28:44;;;;;;;1.75;1.10;;;4.10;99.90;;;;;;5010002;28;20087;-70
2022/03/31 00:31:10;;;;;;;2.15;1.13;;;4.40;99.90;;;;;;5010424;28;20226;-71
2022/03/31 00:33:35;;;;;;;1.48;1.02;;;4.20;99.90;;;;;;5002366;28;20053;-71
2022/03/31 00:36:01;;;;;;;1.73;1.20;;;4.10;99.90;;;;;;5021863;28;20532;-71
2022/03/31 00:38:27;;;;;;;1.08;0.95;;;4.10;99.90;;;;;;5024444;28;20458;-70
2022/03/31 00:40:53;;;;;;;1.33;0.93;;;4.10;99.90;;;;;;5012844;28;20157;-71
2022/03/31 00:43:19;;;;;;;1.17;0.98;;;4.00;99.90;;;;;;5007655;28;20515;-70
2022/03/31 00:45:48;;;;;;;3.63;1.55;;;4.10;99.90;;;;;;5017081;28;20041;-71
2022/03/31 00:48:15;;;;;;;3.92;1.73;;;4.10;99.90;;;;;;5029361;28;20594;-71
2022/03/31 00:50:41;;;;;;;3.55;1.85;;;4.10;99.90;;;;;;5000865;28;20192;-71
2022/03/31 00:53:08;;;;;;;2.53;1.52;;;4.00;99.90;;;;;;5006543;28;20079;-72
2022/03/31 00:55:35;;;;;;;2.30;1.95;;;4.00;99.90;;;;;;5010743;28;20057;-71
2022/03/31 00:58:01;;;;;;;3.85;1.98;;;4.00;99.90;;;;;;5004161;28;20123;-71
2022/03/31 01:00:27;;;;;;;3.33;1.33;;;4.00;99.90;;;;;;4997309;28;20049;-71
2022/03/31 01:02:53;;;;;;;2.45;1.42;;;4.10;99.90;;;;;;5020864;28;20036;-71
2022/03/31 01:05:18;;;;;;;1.98;1.58;;;4.00;99.90;;;;;;5027140;28;20126;-71
2022/03/31 01:07:44;;;;;;;3.03;1.60;;;4.00;99.90;;;;;;5000427;28;20756;-71
2022/03/31 01:10:12;;;;;;;2.47;1.23;;;4.00;99.90;;;;;;5004888;28;20057;-71
2022/03/31 01:12:38;;;;;;;4.97;1.60;;;3.90;99.90;;;;;;5037697;28;20049;-71
2022/03/31 01:15:11;;;;;;;3.00;1.67;;;3.90;99.90;;;;;;5011054;28;20058;-71
2022/03/31 01:17:39;;;;;;;2.35;1.60;;;3.90;99.90;;;;;;5003863;28;20046;-71
2022/03/31 01:20:08;;;;;;;3.33;1.58;;;3.90;99.90;;;;;;5021049;28;20505;-71
2022/03/31 01:22:34;;;;;;;4.25;1.20;;;3.90;99.90;;;;;;5023617;28;20120;-71
2022/03/31 01:25:02;;;;;;;3.17;1.90;;;3.80;99.90;;;;;;5034177;28;20400;-71
2022/03/31 01:27:28;;;;;;;5.50;1.73;;;3.80;99.90;;;;;;5008235;28;20045;-71
2022/03/31 01:29:54;;;;;;;3.78;1.95;;;3.90;99.90;;;;;;5001066;28;20465;-71
2022/03/31 01:32:20;;;;;;;6.05;2.35;;;3.80;99.90;;;;;;5012030;28;20053;-71
2022/03/31 01:34:46;;;;;;;2.15;1.88;;;3.80;99.90;;;;;;4999198;28;20057;-71
2022/03/31 01:37:15;;;;;;;3.40;2.03;;;3.80;99.90;;;;;;5023073;28;20167;-71
2022/03/31 01:39:41;;;;;;;3.90;1.88;;;3.80;99.90;;;;;;5034051;28;20053;-71
2022/03/31 01:42:07;;;;;;;3.08;2.13;;;3.80;99.90;;;;;;5010027;28;20053;-71
2022/03/31 01:44:33;;;;;;;2.47;2.10;;;3.80;99.90;;;;;;5006778;28;20824;-71
2022/03/31 01:46:59;;;;;;;4.22;2.25;;;3.80;99.90;;;;;;5018806;28;20053;-71
2022/03/31 01:49:25;;;;;;;3.05;2.20;;;3.80;99.90;;;;;;5017996;28;20092;-71
2022/03/31 01:51:51;;;;;;;5.13;2.42;;;3.80;99.90;;;;;;5016802;28;20053;-71
2022/03/31 01:54:16;;;;;;;4.55;2.60;;;3.20;99.90;;;;;;5011139;28;20059;-71
2022/03/31 01:56:44;;;;;;;4.00;1.85;;;3.70;99.90;;;;;;5010851;28;20087;-70
2022/03/31 01:59:10;;;;;;;4.15;2.25;;;3.70;99.90;;;;;;5028835;28;20049;-71
2022/03/31 02:01:37;;;;;;;3.25;2.60;;;3.80;99.90;;;;;;5018553;28;20080;-70
2022/03/31 02:04:02;;;;;;;3.28;2.33;;;3.70;99.90;;;;;;5021845;28;20575;-70
2022/03/31 02:06:29;;;;;;;4.10;2.95;;;3.70;99.90;;;;;;5025143;28;20048;-70
2022/03/31 02:08:56;;;;;;;4.38;3.10;;;3.70;99.90;;;;;;4998581;28;20066;-70
2022/03/31 02:11:22;;;;;;;5.75;3.20;;;3.70;99.90;;;;;;4999504;28;20111;-71
2022/03/31 02:13:48;;;;;;;7.18;3.25;;;3.70;99.90;;;;;;4999168;28;20053;-70
2022/03/31 02:16:14;;;;;;;4.53;3.25;;;3.70;99.90;;;;;;4998023;28;20106;-70
2022/03/31 02:18:40;;;;;;;3.33;2.63;;;3.70;99.90;;;;;;5016434;28;20046;-70
2022/03/31 02:21:06;;;;;;;3.50;3.20;;;3.70;99.90;;;;;;5017903;28;20048;-71
2022/03/31 02:23:31;;;;;;;6.03;3.60;;;3.70;99.90;;;;;;5034379;28;20861;-70
2022/03/31 02:25:57;;;;;;;6.95;3.45;;;3.70;99.90;;;;;;5018173;28;20116;-70
2022/03/31 02:28:23;;;;;;;7.15;4.72;;;3.70;99.90;;;;;;4994152;28;20077;-70
2022/03/31 02:30:49;;;;;;;8.82;5.18;;;3.70;99.90;;;;;;5008276;28;20483;-70
2022/03/31 02:33:14;;;;;;;7.45;4.95;;;3.70;99.90;;;;;;5002585;28;20052;-71
2022/03/31 02:35:40;;;;;;;8.35;5.32;;;3.60;99.90;;;;;;4985160;28;20054;-71
2022/03/31 02:38:05;;;;;;;6.82;5.75;;;3.60;99.90;;;;;;4996331;28;20041;-71
2022/03/31 02:40:31;;;;;;;6.68;5.15;;;3.60;99.90;;;;;;4997171;28;20112;-70
2022/03/31 02:42:57;;;;;;;9.93;5.25;;;3.60;99.90;;;;;;5009164;28;20045;-70
2022/03/31 02:45:22;;;;;;;6.32;5.10;;;3.60;99.90;;;;;;4979068;28;20136;-70
2022/03/31 02:47:48;;;;;;;6.78;6.07;;;3.50;99.90;;;;;;5003526;28;20038;-70
2022/03/31 02:50:17;;;;;;;6.30;5.07;;;3.50;99.90;;;;;;4996627;28;20072;-71
2022/03/31 02:55:28;;;;;;;9.40;5.13;;;3.50;99.90;;;;;;4980037;28;20100;-71
2022/03/31 02:57:55;;;;;;;5.68;4.35;;;3.50;99.90;;;;;;4998803;28;20210;-70
2022/03/31 03:00:21;;;;;;;6.10;4.30;;;3.50;99.90;;;;;;4995232;28;20115;-70
2022/03/31 03:02:47;;;;;;;9.85;5.22;;;3.50;99.90;;;;;;4996981;28;20049;-70
2022/03/31 03:05:12;;;;;;;8.70;5.40;;;3.50;99.90;;;;;;4988082;28;20050;-71
2022/03/31 03:07:38;;;;;;;8.18;5.15;;;4.40;99.90;;;;;;4998141;28;20497;-70
2022/03/31 03:10:04;;;;;;;5.68;4.55;;;3.50;99.90;;;;;;5015706;28;20073;-70
2022/03/31 03:12:31;;;;;;;7.13;5.38;;;3.50;99.90;;;;;;4997773;28;20052;-70
2022/03/31 03:14:56;;;;;;;6.43;4.95;;;3.50;99.90;;;;;;4998323;28;20056;-69
2022/03/31 03:17:22;;;;;;;4.93;4.05;;;3.40;99.90;;;;;;5016422;28;20045;-70
2022/03/31 03:19:47;;;;;;;6.75;4.18;;;3.40;99.90;;;;;;5015120;28;20049;-70
2022/03/31 03:22:13;;;;;;;5.97;3.50;;;3.40;99.90;;;;;;4997866;28;20493;-69
2022/03/31 03:24:39;;;;;;;4.57;4.18;;;3.40;99.90;;;;;;4997736;28;20057;-70
2022/03/31 03:27:05;;;;;;;5.75;4.95;;;3.40;99.90;;;;;;4997265;28;20053;-70
2022/03/31 03:29:31;;;;;;;7.10;5.95;;;3.40;99.90;;;;;;5015788;28;20385;-70
2022/03/31 03:31:56;;;;;;;6.97;4.93;;;3.40;99.90;;;;;;5016020;28;20081;-69
2022/03/31 03:34:22;;;;;;;9.40;4.75;;;3.40;99.90;;;;;;4995070;28;20054;-70
2022/03/31 03:36:47;;;;;;;6.57;4.88;;;3.40;99.90;;;;;;4996590;28;20530;-70
2022/03/31 03:39:14;;;;;;;6.45;5.15;;;3.40;99.90;;;;;;4979275;28;21080;-70
2022/03/31 03:41:40;;;;;;;8.75;5.97;;;3.40;99.90;;;;;;4978604;28;20068;-69
2022/03/31 03:44:06;;;;;;;7.40;5.75;;;3.40;99.90;;;;;;4996116;28;20895;-68
2022/03/31 03:46:32;;;;;;;6.95;6.30;;;3.30;99.90;;;;;;4996194;28;20046;-68
2022/03/31 03:48:57;;;;;;;9.85;7.47;;;3.30;99.90;;;;;;4977587;28;20050;-67
2022/03/31 03:51:24;;;;;;;9.60;6.60;;;3.30;99.90;;;;;;4995964;28;20038;-67
2022/03/31 03:53:50;;;;;;;7.97;6.43;;;3.30;99.90;;;;;;4996316;28;20049;-70
2022/03/31 03:56:16;;;;;;;12.65;7.47;;;3.30;99.90;;;;;;4986926;28;20050;-71
2022/03/31 03:58:42;;;;;;;8.82;6.35;;;3.30;99.90;;;;;;5016008;28;20064;-71
2022/03/31 04:01:08;;;;;;;11.95;8.10;;;3.30;99.90;;;;;;4996972;28;20053;-71
2022/03/31 04:03:34;;;;;;;10.82;8.80;;;3.30;99.90;;;;;;4997786;28;20056;-71
2022/03/31 04:06:00;;;;;;;11.07;8.43;;;3.20;99.90;;;;;;5015059;28;20463;-71
2022/03/31 04:08:26;;;;;;;12.52;8.20;;;3.20;99.90;;;;;;4996684;28;20056;-70
2022/03/31 04:10:51;;;;;;;11.05;7.45;;;3.20;99.90;;;;;;4997577;28;20049;-70
2022/03/31 04:13:17;;;;;;;9.52;8.57;;;3.20;99.90;;;;;;5015716;28;20668;-70
2022/03/31 04:15:42;;;;;;;10.75;6.82;;;3.10;99.90;;;;;;5014884;28;20053;-70
2022/03/31 04:18:09;;;;;;;9.85;7.78;;;3.10;99.90;;;;;;5017997;28;20049;-70
2022/03/31 04:20:35;;;;;;;10.70;7.30;;;3.10;99.90;;;;;;5018834;28;20139;-70
2022/03/31 04:23:01;;;;;;;9.48;7.32;;;3.10;99.90;;;;;;5001094;28;20152;-70
2022/03/31 04:25:26;;;;;;;7.60;6.75;;;3.10;99.90;;;;;;5001057;28;20059;-71
2022/03/31 04:27:52;;;;;;;14.00;9.82;;;3.10;99.90;;;;;;5018845;28;20133;-71
2022/03/31 04:30:20;;;;;;;9.25;7.72;;;3.00;99.90;;;;;;5018213;28;20037;-70
2022/03/31 04:32:47;;;;;;;8.68;7.78;;;3.00;99.90;;;;;;5002122;28;20050;-72
2022/03/31 04:35:13;;;;;;;12.52;7.57;;;3.00;99.90;;;;;;4988893;28;20576;-71
2022/03/31 04:37:39;;;;;;;12.00;8.40;;;3.00;99.90;;;;;;4999040;28;20656;-72
2022/03/31 04:40:06;;;;;;;12.02;8.13;;;3.00;99.90;;;;;;4999050;28;20045;-71
2022/03/31 04:42:32;;;;;;;13.15;8.90;;;3.00;99.90;;;;;;4996395;28;20161;-68
2022/03/31 04:44:58;;;;;;;14.00;9.30;;;3.00;99.90;;;;;;4995119;28;20042;-68
2022/03/31 04:47:23;;;;;;;13.95;10.85;;;3.00;99.90;;;;;;4977703;28;20141;-71
2022/03/31 04:49:49;;;;;;;13.60;9.20;;;3.00;99.90;;;;;;5012161;28;20107;-71
2022/03/31 04:52:15;;;;;;;15.35;11.45;;;3.00;99.90;;;;;;5014158;28;20622;-72
2022/03/31 04:54:43;;;;;;;13.45;10.52;;;2.90;99.90;;;;;;4997699;28;20544;-71
2022/03/31 04:57:18;;;;;;;15.32;11.10;;;2.90;99.90;;;;;;5015639;28;20107;-71
2022/03/31 04:59:45;;;;;;;17.33;11.95;;;3.00;99.90;;;;;;4997102;28;20878;-71
2022/03/31 05:02:12;;;;;;;13.15;9.85;;;3.00;99.90;;;;;;5016108;28;20049;-71
2022/03/31 05:04:38;;;;;;;15.43;11.10;;;3.00;99.90;;;;;;4997770;28;20053;-71
2022/03/31 05:07:04;;;;;;;14.20;9.50;;;3.00;99.90;;;;;;4997925;28;20798;-71
2022/03/31 05:09:29;;;;;;;12.95;9.80;;;3.00;99.90;;;;;;5015133;28;20053;-72
2022/03/31 05:11:55;;;;;;;11.57;9.52;;;3.00;99.90;;;;;;4997442;28;20122;-71
2022/03/31 05:14:21;;;;;;;14.82;9.27;;;3.00;99.90;;;;;;4997937;28;20110;-71
2022/03/31 05:16:46;;;;;;;12.38;10.15;;;3.00;99.90;;;;;;4998225;28;20045;-70
2022/03/31 05:19:12;;;;;;;13.13;9.63;;;3.00;99.90;;;;;;5015003;28;20056;-69
2022/03/31 05:21:38;;;;;;;12.38;9.02;;;3.00;99.90;;;;;;5014763;28;20926;-70
2022/03/31 05:24:04;;;;;;;12.23;9.18;;;3.00;99.90;;;;;;5014976;28;20072;-70
2022/03/31 05:26:29;;;;;;;11.00;8.60;;;3.00;99.90;;;;;;4996699;28;20811;-70
2022/03/31 05:28:55;;;;;;;14.13;8.02;;;3.00;99.90;;;;;;4996602;28;20048;-71
2022/03/31 05:31:20;;;;;;;10.30;8.30;;;3.00;99.90;;;;;;5014324;28;20041;-70
2022/03/31 05:33:46;;;;;;;11.07;7.72;;;3.00;99.90;;;;;;4998108;28;20995;-70
2022/03/31 05:36:12;;;;;;;9.02;7.95;;;3.00;99.90;;;;;;4995075;28;20053;-70
2022/03/31 05:38:37;;;;;;;6.80;5.43;;;3.00;99.90;;;;;;4977366;28;20749;-70
2022/03/31 05:41:03;;;;;;;5.95;5.28;;;3.00;99.90;;;;;;4993741;28;20050;-70
2022/03/31 05:43:29;;;;;;;7.88;5.82;;;3.00;99.90;;;;;;4994699;28;20045;-69
2022/03/31 05:45:54;;;;;;;6.78;6.05;;;3.00;99.90;;;;;;4994902;28;20034;-70
2022/03/31 05:48:20;;;;;;;7.60;5.25;;;3.00;99.90;;;;;;4976063;28;20053;-70
2022/03/31 05:50:46;;;;;;;7.55;5.90;;;3.00;99.90;;;;;;4975903;28;20067;-70
2022/03/31 05:53:13;;;;;;;5.82;5.00;;;2.90;99.90;;;;;;4998092;28;20075;-69
2022/03/31 05:55:40;;;;;;;8.20;6.13;;;2.90;99.90;;;;;;5013849;28;20046;-70
2022/03/31 05:58:06;;;;;;;6.03;5.20;;;3.00;99.90;;;;;;5014477;28;20041;-70
2022/03/31 06:00:32;;;;;;;6.53;5.82;;;2.90;99.90;;;;;;5013916;28;20052;-71
2022/03/31 06:02:58;;;;;;;5.72;5.13;;;2.90;99.90;;;;;;5014027;28;20041;-71
2022/03/31 06:05:24;;;;;;;6.85;5.88;;;3.00;99.90;;;;;;5014407;28;20103;-70
2022/03/31 06:07:52;;;;;;;6.00;5.40;;;2.90;99.90;;;;;;5013526;28;20136;-71
2022/03/31 06:10:18;;;;;;;6.32;5.05;;;2.90;99.90;;;;;;5014116;28;20066;-71
2022/03/31 06:12:43;;;;;;;6.07;5.55;;;3.00;99.90;;;;;;5012598;28;20123;-69
2022/03/31 06:15:09;;;;;;;5.80;5.20;;;3.00;99.90;;;;;;5012717;28;20057;-72
2022/03/31 06:17:39;;;;;;;5.57;4.95;;;3.00;99.90;;;;;;4996333;28;20895;-69
2022/03/31 06:20:06;;;;;;;5.70;5.20;;;3.00;99.90;;;;;;4995649;28;20045;-69
2022/03/31 06:22:31;;;;;;;5.13;4.63;;;3.00;99.90;;;;;;4996076;28;20057;-69
2022/03/31 06:24:57;;;;;;;5.20;4.57;;;3.00;99.90;;;;;;4995728;28;20512;-69
2022/03/31 06:27:22;;;;;;;5.88;5.25;;;2.90;99.90;;;;;;5013265;28;20038;-69
2022/03/31 06:29:49;;;;;;;5.53;5.03;;;3.00;99.90;;;;;;5013331;28;20107;-68
2022/03/31 06:32:15;;;;;;;6.00;5.40;;;3.00;99.90;;;;;;5013980;28;20038;-69
2022/03/31 06:34:42;;;;;;;5.53;4.97;;;2.90;99.90;;;;;;4990902;28;20088;-69
2022/03/31 06:37:09;;;;;;;6.82;5.13;;;2.90;99.90;;;;;;4976720;28;20075;-71
2022/03/31 06:39:35;;;;;;;5.50;5.00;;;2.90;99.90;;;;;;5008935;28;20056;-71
2022/03/31 06:42:01;;;;;;;5.35;4.85;;;2.90;99.90;;;;;;5012401;28;20596;-71
2022/03/31 06:44:26;;;;;;;5.78;5.28;;;2.90;99.90;;;;;;5011255;28;20576;-72
2022/03/31 06:46:52;;;;;;;6.50;5.63;;;2.90;99.90;;;;;;5012682;28;20060;-69
2022/03/31 06:49:18;;;;;;;5.50;5.10;;;2.80;99.90;;;;;;4995717;28;20045;-69
2022/03/31 06:51:44;;;;;;;5.32;4.80;;;2.90;99.90;;;;;;5012365;28;20629;-69
2022/03/31 06:54:10;;;;;;;7.95;5.70;;;2.80;99.90;;;;;;4995476;28;20049;-69
2022/03/31 06:56:36;;;;;;;5.78;5.22;;;2.80;99.90;;;;;;5013142;28;20129;-69
2022/03/31 06:59:02;;;;;;;7.55;5.28;;;2.80;99.90;;;;;;4995471;28;20051;-69
2022/03/31 07:01:28;;;;;;;6.95;6.25;;;2.80;99.90;;;;;;5014075;28;20053;-69
2022/03/31 07:03:54;;;;;;;6.75;5.80;;;2.80;99.90;;;;;;5010071;28;20080;-69
2022/03/31 07:06:21;;;;;;;7.65;6.93;;;2.90;99.90;;;;;;5011212;28;20053;-69
2022/03/31 07:08:47;;;;;;;6.72;6.07;;;2.90;99.90;;;;;;5012425;28;20066;-69
2022/03/31 07:11:13;;;;;;;8.52;7.30;;;2.90;99.90;;;;;;5013601;28;20052;-72
2022/03/31 07:13:39;;;;;;;7.88;7.05;;;2.90;99.90;;;;;;5007401;28;20119;-72
2022/03/31 07:16:05;;;;;;;8.40;6.97;;;2.90;99.90;;;;;;4997311;28;20148;-72
2022/03/31 07:18:31;;;;;;;6.88;6.18;;;2.90;99.90;;;;;;5014776;28;20080;-72
2022/03/31 07:20:59;;;;;;;8.45;6.82;;;2.90;99.90;;;;;;5014547;28;20042;-72
2022/03/31 07:23:26;;;;;;;6.35;5.70;;;2.90;99.90;;;;;;4995137;28;20816;-72
2022/03/31 07:25:56;;;;;;;8.63;7.38;;;2.90;99.90;;;;;;4995910;28;20391;-72
2022/03/31 07:28:22;;;;;;;9.93;7.22;;;3.00;99.90;;;;;;5013455;28;20053;-72
2022/03/31 07:30:48;;;;;;;7.50;5.90;;;3.00;99.90;;;;;;5013171;28;20500;-72
2022/03/31 07:33:14;;;;;;;8.00;5.93;;;3.10;99.90;;;;;;5014767;28;20049;-72
2022/03/31 07:35:41;;;;;;;9.13;6.22;;;3.10;99.90;;;;;;5013577;28;20125;-77
2022/03/31 07:38:08;;;;;;;7.90;7.13;;;3.10;99.90;;;;;;5014907;28;20053;-73
2022/03/31 07:40:39;;;;;;;8.00;5.97;;;3.10;99.90;;;;;;5011727;28;20204;-73
2022/03/31 07:43:05;;;;;;;9.25;6.80;;;3.10;99.90;;;;;;4664370;28;10000301;-73
2022/03/31 07:45:34;;;;;;;7.82;6.30;;;3.20;99.90;;;;;;5012263;28;20577;-72
2022/03/31 07:48:01;;;;;;;8.82;6.43;;;3.30;99.90;;;;;;5014564;28;20049;-71
2022/03/31 07:50:26;;;;;;;7.30;6.60;;;3.30;99.90;;;;;;5012150;28;20751;-71
2022/03/31 07:52:52;;;;;;;6.82;6.22;;;3.30;99.90;;;;;;5011834;28;20051;-70
2022/03/31 07:55:19;;;;;;;8.75;6.57;;;3.30;99.90;;;;;;4993576;28;20049;-69
2022/03/31 07:57:46;;;;;;;6.47;5.72;;;3.20;99.90;;;;;;4995361;28;20045;-70
2022/03/31 08:00:13;;;;;;;7.40;5.45;;;3.30;99.90;;;;;;5010128;28;20052;-69
2022/03/31 08:02:41;;;;;;;6.97;5.93;;;3.20;99.90;;;;;;5013447;28;20050;-68
2022/03/31 08:05:09;;;;;;;5.97;5.47;;;3.20;99.90;;;;;;5011772;28;20045;-68
2022/03/31 08:07:35;;;;;;;6.07;5.35;;;3.20;99.90;;;;;;5012489;28;20230;-70
2022/03/31 08:10:01;;;;;;;5.85;5.35;;;3.20;99.90;;;;;;5013547;28;20152;-65
2022/03/31 08:12:26;;;;;;;6.82;5.22;;;3.20;99.90;;;;;;5012892;28;20051;-64
2022/03/31 08:14:52;;;;;;;5.78;5.22;;;3.20;99.90;;;;;;5011601;28;20065;-67
2022/03/31 08:17:18;;;;;;;6.10;5.13;;;3.20;99.90;;;;;;5013533;28;20049;-68
2022/03/31 08:19:43;;;;;;;5.53;4.57;;;3.20;99.90;;;;;;5013611;28;20042;-66
2022/03/31 08:22:11;;;;;;;6.60;4.78;;;3.20;99.90;;;;;;5014364;28;20676;-67
2022/03/31 08:24:36;;;;;;;5.53;3.45;;;3.20;99.90;;;;;;5011334;28;20072;-67
2022/03/31 08:27:03;;;;;;;5.05;3.95;;;3.30;99.90;;;;;;5015473;28;20778;-67
2022/03/31 08:29:29;;;;;;;5.68;4.18;;;3.20;99.90;;;;;;5013257;28;20072;-67
2022/03/31 08:31:56;;;;;;;5.95;3.75;;;3.20;99.90;;;;;;5013586;28;20049;-68
2022/03/31 08:34:22;;;;;;;3.63;3.30;;;3.30;99.90;;;;;;4996836;28;20080;-69
2022/03/31 08:36:48;;;;;;;3.90;3.47;;;3.20;99.90;;;;;;5013302;28;20041;-68
2022/03/31 08:39:13;;;;;;;5.40;3.95;;;3.10;99.90;;;;;;5014168;28;20050;-68
2022/03/31 08:41:39;;;;;;;5.20;3.55;;;3.00;99.90;;;;;;4995202;28;20053;-68
2022/03/31 08:44:06;;;;;;;4.38;3.92;;;2.90;99.90;;;;;;5011169;28;20166;-68
2022/03/31 08:46:34;;;;;;;4.53;3.28;;;2.80;99.90;;;;;;5013236;28;20049;-67
2022/03/31 08:49:01;;;;;;;4.78;3.47;;;4.00;99.90;;;;;;5014409;28;20797;-67
2022/03/31 08:51:27;;;;;;;4.25;3.75;;;2.70;99.90;;;;;;5014575;28;20053;-69
2022/03/31 08:53:53;;;;;;;5.43;3.65;;;2.70;99.90;;;;;;5014269;28;20536;-68
2022/03/31 08:56:20;;;;;;;4.45;3.72;;;2.70;99.90;;;;;;5013680;28;20049;-68
2022/03/31 08:58:46;;;;;;;5.28;4.00;;;2.70;99.90;;;;;;5010955;28;20158;-68
2022/03/31 09:01:13;;;;;;;4.95;4.35;;;2.70;99.90;;;;;;5011886;28;20902;-69
2022/03/31 09:03:39;;;;;;;4.90;4.35;;;2.70;99.90;;;;;;4993912;28;20062;-69
2022/03/31 09:06:07;;;;;;;5.22;4.57;;;2.60;99.90;;;;;;5011901;28;20961;-70
2022/03/31 09:08:34;;;;;;;5.03;4.28;;;2.60;99.90;;;;;;5011957;28;20045;-69
2022/03/31 09:11:03;;;;;;;6.25;5.38;;;2.60;99.90;;;;;;5030294;28;20049;-68
2022/03/31 09:13:40;;;;;;;6.10;5.05;;;2.50;99.90;;;;;;5020471;28;20041;-67
2022/03/31 09:16:11;;;;;;;4.80;4.22;;;2.50;99.90;;;;;;5013189;28;20099;-68
2022/03/31 09:18:39;;;;;;;5.97;4.70;;;2.50;99.90;;;;;;4994317;28;20123;-69
2022/03/31 09:21:11;;;;;;;8.40;6.65;;;2.40;99.90;;;;;;5012813;28;20784;-68
2022/03/31 09:23:43;;;;;;;8.60;6.45;;;2.50;99.90;;;;;;5013389;28;20037;-68
2022/03/31 09:26:14;;;;;;;8.45;5.63;;;2.40;99.90;;;;;;5010606;28;20125;-68
2022/03/31 09:28:41;;;;;;;7.15;5.00;;;2.50;99.90;;;;;;5013186;28;20065;-68
2022/03/31 09:31:10;;;;;;;8.10;5.35;;;2.40;99.90;;;;;;5013461;28;20041;-69
2022/03/31 09:33:48;;;;;;;10.82;6.75;;;2.50;99.90;;;;;;5013594;28;20075;-68
2022/03/31 09:36:22;;;;;;;10.10;7.32;;;2.50;99.90;;;;;;5014110;28;20046;-68
2022/03/31 09:38:52;;;;;;;13.20;8.50;;;2.50;99.90;;;;;;5011384;28;20715;-69
2022/03/31 09:41:19;;;;;;;16.33;9.40;;;2.40;99.90;;;;;;5014665;28;20107;-69
2022/03/31 09:43:45;;;;;;;14.80;9.88;;;3.40;99.90;;;;;;4997478;28;20497;-70
2022/03/31 09:46:35;;;;;;;13.35;8.27;;;2.40;99.90;;;;;;5013962;28;20064;-68
2022/03/31 09:49:22;;;;;;;15.45;9.65;;;2.30;99.90;;;;;;4995581;28;20691;-69
2022/03/31 09:51:50;;;;;;;17.05;9.48;;;2.30;99.90;;;;;;5013479;28;20053;-70
2022/03/31 09:54:17;;;;;;;10.20;8.48;;;2.20;99.90;;;;;;5013033;28;20045;-69
2022/03/31 09:56:43;;;;;;;11.60;6.80;;;2.10;99.90;;;;;;5012903;28;20107;-70
2022/03/31 09:59:12;;;;;;;9.18;5.50;;;2.10;99.90;;;;;;5012268;28;20048;-70
2022/03/31 10:01:39;;;;;;;8.35;5.75;;;2.00;99.90;;;;;;5011811;28;20076;-71
2022/03/31 10:04:06;;;;;;;6.82;4.70;;;1.90;99.90;;;;;;5011366;28;20083;-70
2022/03/31 10:06:36;;;;;;;4.95;4.30;;;1.80;99.90;;;;;;5013280;28;20152;-71
2022/03/31 10:09:05;;;;;;;6.35;4.55;;;1.80;99.90;;;;;;5012598;28;20053;-70
2022/03/31 10:11:34;;;;;;;8.30;6.18;;;1.80;99.90;;;;;;5013175;28;20072;-70
2022/03/31 10:14:43;;;;;;;11.50;8.15;;;1.80;99.90;;;;;;5012455;28;20065;-71
2022/03/31 10:17:10;;;;;;;17.00;10.15;;;1.80;99.90;;;;;;5013118;28;20061;-71
2022/03/31 10:19:41;;;;;;;21.25;12.50;;;1.70;99.90;;;;;;5013670;28;20045;-72
2022/03/31 10:24:41;;;;;;;21.92;12.35;;;1.70;99.90;;;;;;5012364;28;20041;-74
2022/03/31 10:24:57;;;;;;;13.13;9.10;;;1.60;99.90;;;;;;5013553;28;20068;-74
2022/03/31 10:27:29;;;;;;;12.52;9.07;;;1.60;99.90;;;;;;5013851;28;20049;-74
2022/03/31 10:30:06;;;;;;;10.07;8.07;;;1.60;99.90;;;;;;5013818;28;20128;-75
2022/03/31 10:32:31;;;;;;;13.50;8.65;;;1.60;99.90;;;;;;5014018;28;20076;-73
2022/03/31 10:34:57;;;;;;;16.58;9.40;;;1.60;99.90;;;;;;5013187;28;20795;-73
2022/03/31 10:37:37;;;;;;;17.20;9.52;;;1.60;99.90;;;;;;5013472;28;20033;-75
2022/03/31 10:40:06;;;;;;;15.23;9.38;;;1.70;99.90;;;;;;5013694;28;20055;-75
2022/03/31 10:42:32;;;;;;;12.82;8.95;;;1.60;99.90;;;;;;5012939;28;20049;-75
2022/03/31 10:45:07;;;;;;;14.73;9.45;;;1.60;99.90;;;;;;5013471;28;20038;-74
2022/03/31 10:47:34;;;;;;;14.25;8.95;;;1.60;99.90;;;;;;5013530;28;20049;-74
2022/03/31 10:50:01;;;;;;;14.40;9.95;;;1.50;99.90;;;;;;5012630;28;20060;-74
2022/03/31 10:52:28;;;;;;;13.82;9.07;;;1.50;99.90;;;;;;5013811;28;20116;-74
2022/03/31 10:55:05;;;;;;;12.02;8.25;;;1.50;99.90;;;;;;5013053;28;20120;-74
2022/03/31 10:57:39;;;;;;;11.38;6.63;;;1.60;99.90;;;;;;5012957;28;20037;-74
2022/03/31 11:00:07;;;;;;;7.45;6.20;;;1.50;99.90;;;;;;5013767;28;20128;-74
2022/03/31 11:02:39;;;;;;;6.03;5.43;;;1.60;99.90;;;;;;4996657;28;20079;-73
2022/03/31 11:05:05;;;;;;;7.70;5.47;;;1.50;99.90;;;;;;5012947;28;20392;-74
2022/03/31 11:07:31;;;;;;;8.88;5.85;;;1.50;99.90;;;;;;5013098;28;20500;-74
2022/03/31 11:10:11;;;;;;;7.07;5.60;;;1.50;99.90;;;;;;5012786;28;20053;-74
2022/03/31 11:12:38;;;;;;;7.28;4.65;;;1.50;99.90;;;;;;5013826;28;20816;-74
2022/03/31 11:15:12;;;;;;;6.60;5.22;;;1.50;99.90;;;;;;5013748;28;20109;-74
2022/03/31 11:17:40;;;;;;;8.40;6.00;;;1.50;99.90;;;;;;5012894;28;20092;-74
2022/03/31 11:20:32;;;;;;;8.43;6.43;;;1.50;99.90;;;;;;5012805;28;20506;-75
2022/03/31 11:23:03;;;;;;;6.43;5.32;;;1.50;99.90;;;;;;5010712;28;20061;-76
2022/03/31 11:25:30;;;;;;;6.50;5.55;;;1.50;99.90;;;;;;5013199;28;20244;-76
2022/03/31 11:27:58;;;;;;;6.35;5.53;;;1.40;99.90;;;;;;5017715;28;20630;-76
2022/03/31 11:30:30;;;;;;;6.15;4.95;;;1.50;99.90;;;;;;4999327;28;20635;-75
2022/03/31 11:32:57;;;;;;;8.00;5.82;;;1.40;99.90;;;;;;5002477;28;20045;-74
2022/03/31 11:35:24;;;;;;;6.15;5.43;;;1.40;99.90;;;;;;5003428;28;20046;-75
2022/03/31 11:38:02;;;;;;;5.72;5.13;;;1.40;99.90;;;;;;4997779;28;20050;-74
2022/03/31 11:40:40;;;;;;;6.88;5.47;;;1.40;99.90;;;;;;4996761;28;20042;-75
2022/03/31 11:43:09;;;;;;;6.70;5.80;;;1.40;99.90;;;;;;4997376;28;20461;-76
2022/03/31 11:45:42;;;;;;;7.15;5.63;;;1.40;99.90;;;;;;4997046;28;20056;-76
2022/03/31 11:48:12;;;;;;;7.47;6.55;;;1.40;99.90;;;;;;4998035;28;20060;-74
2022/03/31 11:50:47;;;;;;;6.53;5.82;;;1.40;99.90;;;;;;4998212;28;20077;-75
2022/03/31 11:53:17;;;;;;;6.22;5.40;;;1.40;99.90;;;;;;4979842;28;20100;-75
2022/03/31 11:55:43;;;;;;;9.20;5.78;;;1.50;99.90;;;;;;4997373;28;20081;-74
2022/03/31 11:58:08;;;;;;;8.50;6.80;;;1.40;99.90;;;;;;5005501;28;20148;-75
2022/03/31 12:00:34;;;;;;;7.05;5.80;;;1.40;99.90;;;;;;4995353;28;20555;-75
2022/03/31 12:03:09;;;;;;;8.98;6.32;;;1.40;99.90;;;;;;5015391;28;20045;-74
2022/03/31 12:05:35;;;;;;;9.90;6.85;;;1.40;99.90;;;;;;5014596;28;20098;-75
2022/03/31 12:08:02;;;;;;;7.18;6.07;;;1.40;99.90;;;;;;4997762;28;20056;-76
2022/03/31 12:10:30;;;;;;;9.50;6.97;;;1.10;99.90;;;;;;5015461;28;20099;-73
2022/03/31 12:12:59;;;;;;;8.07;6.20;;;1.50;99.90;;;;;;5017213;28;20114;-74
2022/03/31 12:15:30;;;;;;;9.45;6.78;;;1.50;99.90;;;;;;5016241;28;20049;-73
2022/03/31 12:18:11;;;;;;;8.35;6.60;;;1.50;99.90;;;;;;5016478;28;20057;-74
2022/03/31 12:20:37;;;;;;;8.98;7.50;;;1.50;99.90;;;;;;5015397;28;20064;-73
2022/03/31 12:23:15;;;;;;;10.23;6.78;;;1.50;99.90;;;;;;5016064;28;20049;-73
2022/03/31 12:25:41;;;;;;;10.18;7.10;;;1.50;99.90;;;;;;5016319;28;20040;-73
2022/03/31 12:28:08;;;;;;;11.68;8.63;;;1.60;99.90;;;;;;5016670;28;20053;-74
2022/03/31 12:30:50;;;;;;;14.32;8.75;;;1.60;99.90;;;;;;5016436;28;20111;-74
2022/03/31 12:33:28;;;;;;;13.27;8.07;;;1.50;99.90;;;;;;5020243;28;20705;-74
2022/03/31 12:36:05;;;;;;;9.00;7.00;;;1.60;99.90;;;;;;4994563;28;20127;-75
2022/03/31 12:38:42;;;;;;;11.38;7.80;;;1.60;99.90;;;;;;4976377;28;20077;-79
2022/03/31 12:41:19;;;;;;;9.93;7.88;;;1.60;99.90;;;;;;4991634;28;20844;-74
2022/03/31 12:44:09;;;;;;;13.15;8.55;;;1.60;99.90;;;;;;5014414;28;20053;-75
2022/03/31 12:46:38;;;;;;;11.77;8.73;;;1.70;99.90;;;;;;4984436;28;20477;-74
2022/03/31 12:49:23;;;;;;;14.65;9.75;;;1.70;99.90;;;;;;5010151;28;20045;-74
2022/03/31 12:52:01;;;;;;;15.73;10.35;;;1.80;99.90;;;;;;5013046;28;20092;-74
2022/03/31 12:54:33;;;;;;;12.32;10.85;;;1.80;99.90;;;;;;4993882;28;20073;-72
2022/03/31 12:57:05;;;;;;;16.00;12.15;;;1.80;99.90;;;;;;5009514;28;20030;-73
2022/03/31 12:59:33;;;;;;;14.85;12.50;;;1.80;99.90;;;;;;5013088;28;20890;-74
2022/03/31 13:02:07;;;;;;;16.10;11.75;;;1.90;99.90;;;;;;5008947;28;20061;-74